METAR - Iceland

Last updated 27.09.2022 - at. 18:19

SIGMET for the last six hours

No SIGMET messages last 6 hours.

METAR from the last three hours

From October 1 2021, runway conditions will not appear in METAR messages.
Instead ISAVIA will show SNOWTAM here: SNOWTAM | Isavia.

AerodromeTimeMessage
BIAR2022-09-27 18.00METAR BIAR 271800Z 31002KT 9999 BKN048 06/M01 Q1012
BIAR2022-09-27 17.00METAR BIAR 271700Z 33003KT 290V010 9999 BKN050 06/M00 Q1013
BIAR2022-09-27 16.00METAR BIAR 271600Z 00000KT CAVOK 06/M01 Q1013
BIBD2022-09-27 16.00METAR BIBD 271600Z 23002KT 9999 BKN045 08/M07 Q1012
BIEG2022-09-27 18.00METAR BIEG 271800Z 19004KT 160V220 9999 SCT025 BKN030 OVC040 06/02 Q1012
BIEG2022-09-27 17.00METAR BIEG 271700Z 25003KT 170V330 9999 SCT025 BKN030 OVC040 07/02 Q1012
BIEG2022-09-27 16.00METAR BIEG 271600Z 20005KT 110V230 9999 SCT025 BKN030 OVC040 07/01 Q1012
BIGR2022-09-27 16.00METAR BIGR 271600Z 35006KT 9999 FEW020 05/M01 Q1013
BIIS2022-09-27 18.00METAR BIIS 271800Z VRB03KT CAVOK 07/M08 Q1011
BIIS2022-09-27 17.00METAR BIIS 271700Z VRB02KT CAVOK 07/M10 Q1011
BIIS2022-09-27 16.00METAR BIIS 271600Z 23006KT CAVOK 07/M08 Q1012
BIKF2022-09-27 18.00METAR BIKF 271800Z 16007KT 140V200 CAVOK 08/01 Q1010
BIKF2022-09-27 17.30METAR BIKF 271730Z 17006KT CAVOK 08/00 Q1010
BIKF2022-09-27 17.00METAR BIKF 271700Z 16006KT CAVOK 08/M02 Q1010
BIKF2022-09-27 16.30METAR BIKF 271630Z 15007KT 120V180 CAVOK 08/M02 Q1010
BIKF2022-09-27 16.00METAR BIKF 271600Z 16006KT 120V190 CAVOK 09/M00 Q1010
BIKF2022-09-27 15.30METAR BIKF 271530Z 16006KT 130V210 CAVOK 09/M01 Q1011
BIRK2022-09-27 18.00METAR BIRK 271800Z 30004KT 280V340 CAVOK 09/M00 Q1010
BIRK2022-09-27 17.00METAR BIRK 271700Z 29003KT CAVOK 09/M02 Q1010
BIRK2022-09-27 16.00METAR BIRK 271600Z VRB02KT CAVOK 09/M02 Q1011
BIVM2022-09-27 17.43METAR BIVM 271743Z 04005KT 310V090 9999 BKN025 08/03 Q1011
BIVM2022-09-27 16.00METAR BIVM 271600Z VRB05KT 9999 BKN025 09/05 Q1011





Other related web sites


This website is built with Eplica CMS